createdAt,value
2022-12-09T00:01:49.374Z,14.55
2022-12-09T00:04:18.550Z,15.40
2022-12-09T00:06:46.804Z,16.80
2022-12-09T00:09:16.430Z,15.75
2022-12-09T00:11:45.891Z,15.43
2022-12-09T00:14:14.061Z,14.95
2022-12-09T00:16:42.262Z,14.05
2022-12-09T00:19:10.243Z,14.00
2022-12-09T00:21:38.300Z,14.82
2022-12-09T00:24:08.631Z,13.35
2022-12-09T00:26:36.616Z,12.48
2022-12-09T00:29:06.386Z,13.95
2022-12-09T00:31:37.598Z,12.35
2022-12-09T00:34:08.448Z,13.15
2022-12-09T00:36:36.453Z,13.82
2022-12-09T00:39:04.704Z,13.20
2022-12-09T00:41:33.023Z,13.63
2022-12-09T00:44:00.976Z,14.15
2022-12-09T00:46:30.962Z,13.27
2022-12-09T00:48:59.215Z,14.60
2022-12-09T00:51:27.674Z,13.02
2022-12-09T00:53:56.393Z,12.77
2022-12-09T00:56:26.464Z,12.20
2022-12-09T00:58:54.591Z,13.48
2022-12-09T01:01:22.663Z,13.57
2022-12-09T01:03:52.273Z,13.27
2022-12-09T01:06:23.236Z,15.25
2022-12-09T01:08:51.576Z,15.43
2022-12-09T01:11:22.071Z,13.68
2022-12-09T01:13:51.286Z,13.75
2022-12-09T01:16:21.978Z,14.95
2022-12-09T01:18:52.283Z,14.52
2022-12-09T01:21:20.647Z,13.27
2022-12-09T01:23:48.679Z,13.15
2022-12-09T01:26:16.642Z,13.55
2022-12-09T01:28:45.469Z,12.82
2022-12-09T01:31:16.494Z,13.82
2022-12-09T01:33:45.337Z,13.70
2022-12-09T01:36:18.183Z,14.05
2022-12-09T01:38:46.840Z,13.38
2022-12-09T01:41:16.640Z,13.63
2022-12-09T01:43:45.944Z,13.10
2022-12-09T01:46:14.145Z,13.63
2022-12-09T01:48:45.928Z,13.52
2022-12-09T01:51:20.531Z,13.52
2022-12-09T01:53:51.500Z,12.93
2022-12-09T01:56:24.209Z,13.05
2022-12-09T01:58:54.377Z,13.48
2022-12-09T02:01:22.858Z,14.63
2022-12-09T02:03:51.816Z,14.23
2022-12-09T02:06:21.637Z,14.02
2022-12-09T02:08:50.728Z,14.20
2022-12-09T02:11:26.609Z,14.18
2022-12-09T02:14:03.520Z,15.00
2022-12-09T02:16:37.282Z,14.38
2022-12-09T02:19:17.692Z,14.57
2022-12-09T02:21:54.590Z,14.65
2022-12-09T02:24:29.986Z,13.93
2022-12-09T02:27:04.452Z,15.55
2022-12-09T02:29:54.053Z,15.27
2022-12-09T02:32:43.924Z,14.82
2022-12-09T02:35:20.203Z,14.73
2022-12-09T02:37:54.768Z,15.50
2022-12-09T02:40:26.469Z,14.43
2022-12-09T02:42:56.507Z,15.18
2022-12-09T02:45:28.577Z,15.75
2022-12-09T02:47:59.589Z,15.57
2022-12-09T02:50:33.350Z,14.95
2022-12-09T02:53:06.480Z,15.63
2022-12-09T02:55:36.956Z,16.75
2022-12-09T02:58:05.857Z,16.63
2022-12-09T03:00:34.148Z,15.93
2022-12-09T03:03:05.563Z,16.08
2022-12-09T03:05:45.637Z,15.65
2022-12-09T03:08:23.004Z,15.57
2022-12-09T03:10:57.783Z,16.38
2022-12-09T03:13:37.754Z,16.42
2022-12-09T03:16:11.856Z,16.85
2022-12-09T03:18:46.071Z,16.60
2022-12-09T03:21:17.695Z,17.73
2022-12-09T03:23:47.431Z,17.40
2022-12-09T03:26:18.263Z,18.02
2022-12-09T03:28:51.393Z,17.73
2022-12-09T03:31:23.089Z,16.45
2022-12-09T03:33:56.372Z,16.48
2022-12-09T03:36:29.983Z,15.45
2022-12-09T03:38:58.976Z,15.98
2022-12-09T03:41:30.711Z,16.77
2022-12-09T03:44:04.754Z,16.05
2022-12-09T03:46:33.082Z,16.42
2022-12-09T03:49:01.314Z,16.83
2022-12-09T03:51:35.873Z,16.08
2022-12-09T03:54:09.479Z,14.65
2022-12-09T03:56:43.072Z,15.32
2022-12-09T03:59:13.762Z,14.75
2022-12-09T04:01:43.712Z,13.90
2022-12-09T04:04:12.910Z,14.35
2022-12-09T04:06:43.007Z,13.10
2022-12-09T04:09:12.486Z,14.15
2022-12-09T04:11:40.728Z,13.35
2022-12-09T04:14:15.091Z,14.30
2022-12-09T04:16:44.295Z,14.15
2022-12-09T04:19:12.527Z,16.25
2022-12-09T04:21:42.039Z,16.10
2022-12-09T04:24:10.832Z,15.80
2022-12-09T04:26:38.905Z,16.40
2022-12-09T04:29:07.018Z,16.42
2022-12-09T04:31:35.119Z,16.33
2022-12-09T04:34:08.949Z,17.50
2022-12-09T04:36:37.855Z,16.38
2022-12-09T04:39:07.583Z,18.05
2022-12-09T04:41:36.814Z,16.73
2022-12-09T04:44:05.624Z,16.73
2022-12-09T04:46:34.167Z,17.52
2022-12-09T04:49:02.401Z,17.85
2022-12-09T04:51:37.345Z,18.65
2022-12-09T04:54:09.068Z,18.85
2022-12-09T04:56:37.446Z,18.42
2022-12-09T04:59:06.338Z,19.42
2022-12-09T05:01:34.792Z,19.10
2022-12-09T05:04:03.525Z,20.15
2022-12-09T05:06:32.063Z,19.40
2022-12-09T05:09:00.455Z,19.30
2022-12-09T05:11:30.423Z,17.75
2022-12-09T05:13:58.789Z,20.02
2022-12-09T05:16:27.352Z,19.30
2022-12-09T05:18:56.216Z,19.45
2022-12-09T05:21:24.405Z,21.13
2022-12-09T05:23:53.522Z,19.92
2022-12-09T05:26:23.545Z,19.90
2022-12-09T05:28:53.737Z,21.40
2022-12-09T05:31:23.995Z,21.00
2022-12-09T05:33:53.335Z,21.27
2022-12-09T05:36:24.363Z,22.83
2022-12-09T05:38:53.371Z,22.70
2022-12-09T05:41:22.230Z,20.08
2022-12-09T05:43:51.910Z,21.73
2022-12-09T05:46:20.750Z,20.88
2022-12-09T05:48:49.118Z,21.10
2022-12-09T05:51:22.566Z,23.83
2022-12-09T05:53:51.128Z,23.38
2022-12-09T05:56:20.587Z,22.77
2022-12-09T05:58:49.292Z,23.58
2022-12-09T06:01:19.962Z,21.23
2022-12-09T06:03:48.667Z,21.10
2022-12-09T06:06:19.839Z,21.58
2022-12-09T06:08:48.138Z,23.10
2022-12-09T06:11:18.973Z,21.05
2022-12-09T06:13:47.788Z,21.00
2022-12-09T06:16:19.007Z,22.52
2022-12-09T06:18:50.398Z,23.63
2022-12-09T06:21:20.701Z,22.38
2022-12-09T06:23:49.904Z,22.23
2022-12-09T06:26:20.303Z,22.65
2022-12-09T06:28:48.432Z,22.02
2022-12-09T06:31:17.392Z,23.52
2022-12-09T06:33:54.687Z,22.52
2022-12-09T06:36:26.187Z,24.60
2022-12-09T06:38:55.482Z,23.42
2022-12-09T06:41:24.482Z,22.42
2022-12-09T06:43:53.192Z,25.55
2022-12-09T06:46:24.943Z,25.92
2022-12-09T06:48:54.694Z,23.25
2022-12-09T06:51:26.088Z,25.38
2022-12-09T06:53:54.715Z,25.67
2022-12-09T06:56:23.955Z,27.10
2022-12-09T06:58:52.849Z,28.15
2022-12-09T07:01:22.916Z,26.65
2022-12-09T07:03:53.383Z,25.60
2022-12-09T07:06:27.757Z,25.13
2022-12-09T07:08:57.373Z,26.35
2022-12-09T07:11:25.873Z,25.77
2022-12-09T07:13:54.160Z,24.02
2022-12-09T07:16:22.881Z,23.55
2022-12-09T07:18:51.258Z,23.98
2022-12-09T07:21:21.472Z,23.73
2022-12-09T07:23:51.330Z,24.55
2022-12-09T07:26:20.053Z,21.35
2022-12-09T07:28:50.398Z,23.10
2022-12-09T07:31:21.383Z,20.95
2022-12-09T07:33:50.200Z,22.27
2022-12-09T07:36:21.589Z,22.23
2022-12-09T07:38:56.447Z,21.30
2022-12-09T07:41:25.252Z,22.88
2022-12-09T07:43:53.704Z,21.88
2022-12-09T07:46:23.486Z,21.85
2022-12-09T07:48:52.684Z,20.85
2022-12-09T07:51:21.048Z,21.83
2022-12-09T07:53:49.577Z,22.90
2022-12-09T07:56:20.300Z,21.13
2022-12-09T07:58:51.250Z,21.98
2022-12-09T08:01:23.017Z,21.30
2022-12-09T08:03:51.704Z,23.90
2022-12-09T08:06:22.464Z,22.83
2022-12-09T08:08:52.004Z,23.02
2022-12-09T08:11:26.639Z,24.38
2022-12-09T08:13:57.654Z,25.67
2022-12-09T08:16:26.812Z,26.25
2022-12-09T08:18:56.412Z,26.08
2022-12-09T08:21:26.284Z,25.42
2022-12-09T08:23:56.170Z,25.42
2022-12-09T08:26:27.917Z,23.88
2022-12-09T08:28:56.463Z,22.67
2022-12-09T08:31:26.623Z,22.63
2022-12-09T08:33:55.795Z,21.58
2022-12-09T08:36:26.422Z,23.95
2022-12-09T08:38:55.537Z,22.90
2022-12-09T08:41:35.980Z,21.60
2022-12-09T08:44:07.213Z,21.88
2022-12-09T08:46:36.429Z,21.30
2022-12-09T08:49:05.674Z,21.10
2022-12-09T08:51:34.978Z,22.60
2022-12-09T08:54:04.248Z,22.05
2022-12-09T08:56:34.445Z,21.88
2022-12-09T08:59:03.025Z,21.30
2022-12-09T09:01:35.906Z,20.38
2022-12-09T09:04:08.368Z,20.33
2022-12-09T09:06:37.522Z,21.70
2022-12-09T09:09:06.871Z,19.40
2022-12-09T09:11:37.437Z,21.65
2022-12-09T09:14:07.075Z,21.63
2022-12-09T09:16:36.446Z,22.25
2022-12-09T09:19:07.084Z,21.38
2022-12-09T09:21:36.793Z,22.13
2022-12-09T09:24:10.467Z,21.58
2022-12-09T09:26:43.493Z,20.23
2022-12-09T09:29:12.698Z,20.48
2022-12-09T09:31:41.135Z,19.90
2022-12-09T09:34:10.222Z,19.25
2022-12-09T09:36:38.459Z,19.30
2022-12-09T09:39:06.948Z,18.95
2022-12-09T09:41:46.342Z,20.02
2022-12-09T09:44:21.168Z,19.95
2022-12-09T09:46:51.661Z,20.20
2022-12-09T09:49:26.331Z,22.38
2022-12-09T09:51:55.003Z,20.35
2022-12-09T09:54:23.499Z,18.65
2022-12-09T09:56:58.752Z,20.17
2022-12-09T09:59:40.151Z,20.73
2022-12-09T10:02:19.390Z,20.17
2022-12-09T10:05:06.423Z,19.50
2022-12-09T10:07:42.399Z,18.98
2022-12-09T10:10:20.978Z,20.52
2022-12-09T10:13:18.612Z,19.45
2022-12-09T10:16:04.592Z,20.30
2022-12-09T10:18:38.084Z,21.23
2022-12-09T10:21:17.259Z,19.92
2022-12-09T10:23:46.943Z,20.95
2022-12-09T10:26:21.826Z,19.58
2022-12-09T10:28:58.674Z,19.77
2022-12-09T10:31:28.937Z,20.42
2022-12-09T10:33:57.679Z,19.77
2022-12-09T10:36:34.023Z,19.33
2022-12-09T10:39:03.994Z,20.10
2022-12-09T10:42:00.801Z,19.40
2022-12-09T10:44:31.299Z,19.35
2022-12-09T10:47:03.080Z,17.95
2022-12-09T10:49:32.412Z,18.15
2022-12-09T10:52:01.554Z,18.90
2022-12-09T10:54:36.507Z,18.38
2022-12-09T10:57:24.196Z,18.00
2022-12-09T11:00:03.037Z,18.52
2022-12-09T11:02:33.901Z,18.25
2022-12-09T11:05:24.395Z,19.00
2022-12-09T11:07:55.250Z,19.77
2022-12-09T11:10:25.878Z,18.63
2022-12-09T11:12:58.526Z,18.92
2022-12-09T11:15:36.164Z,18.08
2022-12-09T11:18:07.881Z,20.17
2022-12-09T11:20:37.524Z,19.15
2022-12-09T11:23:15.237Z,19.15
2022-12-09T11:25:55.740Z,19.50
2022-12-09T11:28:26.170Z,19.13
2022-12-09T11:31:27.580Z,19.27
2022-12-09T11:33:52.058Z,18.10
2022-12-09T11:36:23.042Z,17.38
2022-12-09T11:38:53.816Z,17.38
2022-12-09T11:41:41.763Z,17.40
2022-12-09T11:44:24.517Z,17.73
2022-12-09T11:47:00.382Z,17.92
2022-12-09T11:49:29.736Z,17.77
2022-12-09T11:52:07.177Z,16.63
2022-12-09T11:54:42.760Z,15.95
2022-12-09T11:57:21.688Z,15.20
2022-12-09T11:59:52.719Z,15.32
2022-12-09T12:02:29.544Z,15.93
2022-12-09T12:05:03.932Z,15.05
2022-12-09T12:07:39.549Z,14.10
2022-12-09T12:10:17.234Z,14.32
2022-12-09T12:12:51.570Z,14.30
2022-12-09T12:15:26.167Z,13.52
2022-12-09T12:17:57.782Z,14.35
2022-12-09T12:20:44.075Z,14.07
2022-12-09T12:23:26.352Z,12.65
2022-12-09T12:26:03.045Z,13.15
2022-12-09T12:29:00.144Z,12.60
2022-12-09T12:31:57.706Z,11.73
2022-12-09T12:34:39.415Z,11.73
2022-12-09T12:37:21.141Z,11.57
2022-12-09T12:39:59.349Z,11.38
2022-12-09T12:42:36.473Z,11.23
2022-12-09T12:45:32.503Z,11.63
2022-12-09T12:48:04.942Z,11.00
2022-12-09T12:50:44.400Z,11.32
2022-12-09T12:53:23.142Z,10.88
2022-12-09T12:55:57.288Z,11.80
2022-12-09T12:58:39.577Z,12.50
2022-12-09T13:01:15.100Z,13.02
2022-12-09T13:03:54.342Z,12.80
2022-12-09T13:06:38.238Z,14.27
2022-12-09T13:09:12.875Z,13.85
2022-12-09T13:11:53.707Z,13.27
2022-12-09T13:14:26.126Z,14.30
2022-12-09T13:16:54.453Z,15.38
2022-12-09T13:19:27.907Z,17.42
2022-12-09T13:21:57.776Z,16.83
2022-12-09T13:24:34.432Z,16.40
2022-12-09T13:27:07.303Z,16.73
2022-12-09T13:29:42.245Z,16.63
2022-12-09T13:32:33.140Z,15.68
2022-12-09T13:35:11.573Z,16.30
2022-12-09T13:37:59.331Z,18.40
2022-12-09T13:40:38.920Z,18.13
2022-12-09T13:43:18.053Z,15.57
2022-12-09T13:45:52.454Z,24.27
2022-12-09T13:48:42.167Z,17.27
2022-12-09T13:51:10.299Z,16.27
2022-12-09T13:53:46.846Z,18.10
2022-12-09T13:56:27.635Z,16.23
2022-12-09T13:59:29.779Z,14.45
2022-12-09T14:02:03.180Z,15.70
2022-12-09T14:04:34.825Z,17.95
2022-12-09T14:07:21.182Z,23.10
2022-12-09T14:09:55.109Z,18.55
2022-12-09T14:13:03.947Z,17.60
2022-12-09T14:15:40.034Z,18.05
2022-12-09T14:18:30.719Z,18.42
2022-12-09T14:21:28.073Z,17.75
2022-12-09T14:24:42.194Z,18.27
2022-12-09T14:27:22.427Z,18.52
2022-12-09T14:29:54.395Z,16.73
2022-12-09T14:32:24.535Z,16.42
2022-12-09T14:35:06.167Z,16.33
2022-12-09T14:37:58.303Z,15.35
2022-12-09T14:41:03.139Z,16.33
2022-12-09T14:43:54.451Z,14.60
2022-12-09T14:46:30.135Z,15.25
2022-12-09T14:49:01.994Z,15.45
2022-12-09T14:51:36.324Z,15.52
2022-12-09T14:54:07.907Z,14.63
2022-12-09T14:56:36.417Z,15.50
2022-12-09T14:59:08.505Z,15.32
2022-12-09T15:01:56.129Z,15.30
2022-12-09T15:04:29.511Z,14.90
2022-12-09T15:07:15.635Z,14.30
2022-12-09T15:09:53.103Z,17.73
2022-12-09T15:12:24.604Z,18.70
2022-12-09T15:15:00.663Z,16.40
2022-12-09T15:17:32.370Z,14.77
2022-12-09T15:20:01.411Z,15.50
2022-12-09T15:22:31.757Z,14.75
2022-12-09T15:25:02.341Z,15.90
2022-12-09T15:27:31.423Z,17.15
2022-12-09T15:30:00.773Z,16.85
2022-12-09T15:32:31.195Z,18.52
2022-12-09T15:35:17.967Z,18.80
2022-12-09T15:37:47.303Z,23.95
2022-12-09T15:40:22.242Z,20.48
2022-12-09T15:42:53.763Z,18.63
2022-12-09T15:45:26.417Z,20.95
2022-12-09T15:47:58.286Z,18.20
2022-12-09T15:54:14.829Z,21.52
2022-12-09T15:56:47.244Z,20.00
2022-12-09T15:59:20.561Z,20.63
2022-12-09T16:01:51.859Z,19.75
2022-12-09T16:04:23.880Z,19.90
2022-12-09T16:06:52.089Z,19.60
2022-12-09T16:09:21.671Z,16.00
2022-12-09T16:11:52.432Z,16.88
2022-12-09T16:14:22.028Z,17.30
2022-12-09T16:16:52.959Z,18.83
2022-12-09T16:19:41.885Z,19.55
2022-12-09T16:22:20.119Z,19.55
2022-12-09T16:25:13.761Z,22.02
2022-12-09T16:27:39.275Z,24.92
2022-12-09T16:30:14.847Z,47.10
2022-12-09T16:32:46.299Z,46.53
2022-12-09T16:35:22.405Z,30.08
2022-12-09T16:38:16.356Z,18.02
2022-12-09T16:41:10.838Z,18.42
2022-12-09T16:43:54.987Z,16.40
2022-12-09T16:46:41.862Z,16.67
2022-12-09T16:49:11.510Z,18.08
2022-12-09T16:51:40.480Z,17.33
2022-12-09T16:54:20.067Z,18.90
2022-12-09T16:56:48.980Z,18.38
2022-12-09T16:59:16.957Z,20.38
2022-12-09T17:01:45.084Z,20.27
2022-12-09T17:04:17.187Z,17.83
2022-12-09T17:06:45.229Z,18.23
2022-12-09T17:09:13.373Z,18.73
2022-12-09T17:11:47.041Z,20.15
2022-12-09T17:14:17.541Z,18.00
2022-12-09T17:16:45.654Z,22.02
2022-12-09T17:19:15.110Z,20.38
2022-12-09T17:21:43.142Z,17.25
2022-12-09T17:24:12.542Z,22.35
2022-12-09T17:26:40.753Z,18.10
2022-12-09T17:29:08.683Z,24.35
2022-12-09T17:31:36.684Z,21.52
2022-12-09T17:34:04.812Z,19.67
2022-12-09T17:36:34.269Z,17.77
2022-12-09T17:39:03.320Z,22.25
2022-12-09T17:41:31.414Z,21.45
2022-12-09T17:44:01.207Z,18.38
2022-12-09T17:46:29.330Z,18.20
2022-12-09T17:48:57.405Z,19.35
2022-12-09T17:51:27.030Z,17.33
2022-12-09T17:54:00.309Z,17.88
2022-12-09T17:56:28.397Z,18.48
2022-12-09T17:58:58.008Z,18.88
2022-12-09T18:01:26.533Z,18.92
2022-12-09T18:04:02.938Z,18.83
2022-12-09T18:06:35.267Z,19.05
2022-12-09T18:09:06.283Z,18.23
2022-12-09T18:11:35.029Z,18.23
2022-12-09T18:14:03.088Z,19.63
2022-12-09T18:16:31.413Z,18.80
2022-12-09T18:19:04.279Z,19.50
2022-12-09T18:21:32.889Z,18.75
2022-12-09T18:24:00.998Z,18.05
2022-12-09T18:26:34.062Z,16.48
2022-12-09T18:29:04.930Z,15.75
2022-12-09T18:31:32.930Z,16.10
2022-12-09T18:34:00.812Z,15.40
2022-12-09T18:36:29.620Z,16.27
2022-12-09T18:38:59.353Z,18.70
2022-12-09T18:41:29.237Z,17.70
2022-12-09T18:44:01.796Z,17.23
2022-12-09T18:46:31.716Z,19.05
2022-12-09T18:49:01.239Z,17.83
2022-12-09T18:51:30.196Z,16.73
2022-12-09T18:53:58.877Z,15.88
2022-12-09T18:56:27.665Z,16.23
2022-12-09T18:59:11.264Z,18.17
2022-12-09T19:01:42.383Z,16.30
2022-12-09T19:04:13.875Z,16.95
2022-12-09T19:06:44.953Z,17.02
2022-12-09T19:09:15.033Z,19.50
2022-12-09T19:11:44.447Z,19.00
2022-12-09T19:14:13.999Z,16.08
2022-12-09T19:16:44.165Z,16.00
2022-12-09T19:19:14.204Z,16.88
2022-12-09T19:21:42.236Z,15.57
2022-12-09T19:24:14.535Z,15.48
2022-12-09T19:26:43.718Z,14.38
2022-12-09T19:29:13.263Z,14.68
2022-12-09T19:31:44.212Z,14.20
2022-12-09T19:34:14.934Z,14.25
2022-12-09T19:36:43.701Z,13.82
2022-12-09T19:39:12.696Z,14.13
2022-12-09T19:41:41.619Z,13.43
2022-12-09T19:44:11.089Z,15.75
2022-12-09T19:46:39.466Z,15.73
2022-12-09T19:49:09.661Z,14.25
2022-12-09T19:51:37.756Z,14.15
2022-12-09T19:54:05.891Z,14.75
2022-12-09T19:56:33.866Z,15.43
2022-12-09T19:59:01.996Z,14.07
2022-12-09T20:01:36.780Z,17.00
2022-12-09T20:04:25.461Z,21.58
2022-12-09T20:06:56.233Z,23.77
2022-12-09T20:09:24.545Z,17.83
2022-12-09T20:11:54.225Z,16.90
2022-12-09T20:14:22.118Z,14.70
2022-12-09T20:16:50.154Z,14.57
2022-12-09T20:19:19.703Z,13.60
2022-12-09T20:21:47.731Z,14.82
2022-12-09T20:24:17.390Z,13.82
2022-12-09T20:26:45.411Z,13.98
2022-12-09T20:29:13.751Z,14.20
2022-12-09T20:31:43.107Z,15.30
2022-12-09T20:34:14.273Z,15.85
2022-12-09T20:36:44.619Z,16.13
2022-12-09T20:39:15.171Z,16.65
2022-12-09T20:41:44.649Z,15.25
2022-12-09T20:44:13.719Z,15.07
2022-12-09T20:46:45.334Z,16.40
2022-12-09T20:49:13.324Z,14.98
2022-12-09T20:51:43.945Z,14.55
2022-12-09T20:54:12.606Z,14.60
2022-12-09T20:56:40.658Z,14.25
2022-12-09T20:59:11.563Z,15.10
2022-12-09T21:01:40.240Z,15.75
2022-12-09T21:04:08.584Z,13.75
2022-12-09T21:06:39.267Z,14.75
2022-12-09T21:09:09.355Z,14.57
2022-12-09T21:11:38.231Z,13.77
2022-12-09T21:14:07.754Z,14.38
2022-12-09T21:16:40.458Z,12.77
2022-12-09T21:19:12.322Z,14.48
2022-12-09T21:21:42.681Z,13.65
2022-12-09T21:24:11.901Z,14.48
2022-12-09T21:26:40.655Z,13.35
2022-12-09T21:29:09.590Z,13.88
2022-12-09T21:31:40.827Z,14.35
2022-12-09T21:34:10.514Z,13.35
2022-12-09T21:36:40.474Z,13.82
2022-12-09T21:39:08.998Z,14.77
2022-12-09T21:41:37.917Z,14.18
2022-12-09T21:44:08.051Z,14.65
2022-12-09T21:46:38.360Z,14.20
2022-12-09T21:49:07.885Z,14.15
2022-12-09T21:51:36.476Z,14.35
2022-12-09T21:54:05.013Z,14.32
2022-12-09T21:56:35.572Z,15.20
2022-12-09T21:59:05.196Z,14.00
2022-12-09T22:01:35.823Z,14.70
2022-12-09T22:04:08.176Z,13.70
2022-12-09T22:06:36.368Z,12.93
2022-12-09T22:09:07.015Z,13.52
2022-12-09T22:11:38.048Z,13.80
2022-12-09T22:14:08.565Z,14.88
2022-12-09T22:16:38.941Z,14.10
2022-12-09T22:19:10.286Z,14.73
2022-12-09T22:21:38.515Z,13.80
2022-12-09T22:24:09.322Z,14.63
2022-12-09T22:26:37.424Z,14.18
2022-12-09T22:29:06.449Z,15.43
2022-12-09T22:31:37.452Z,15.15
2022-12-09T22:34:08.703Z,13.27
2022-12-09T22:36:37.126Z,14.60
2022-12-09T22:39:06.831Z,15.82
2022-12-09T22:41:35.798Z,13.65
2022-12-09T22:44:04.522Z,13.57
2022-12-09T22:46:34.673Z,13.80
2022-12-09T22:49:05.061Z,14.63
2022-12-09T22:51:36.684Z,14.38
2022-12-09T22:54:08.051Z,14.73
2022-12-09T22:56:38.086Z,14.65
2022-12-09T22:59:06.655Z,15.18
2022-12-09T23:01:37.791Z,14.57
2022-12-09T23:04:07.871Z,16.02
2022-12-09T23:06:39.116Z,16.23
2022-12-09T23:09:08.576Z,15.40
2022-12-09T23:11:37.030Z,15.30
2022-12-09T23:14:05.613Z,15.90
2022-12-09T23:16:34.091Z,16.73
2022-12-09T23:19:02.151Z,15.77
2022-12-09T23:21:31.742Z,15.63
2022-12-09T23:24:03.213Z,15.68
2022-12-09T23:26:33.445Z,15.38
2022-12-09T23:29:02.350Z,15.95
2022-12-09T23:31:33.012Z,15.55
2022-12-09T23:34:02.078Z,15.88
2022-12-09T23:36:32.032Z,16.65
2022-12-09T23:39:01.875Z,16.52
2022-12-09T23:41:31.088Z,15.60
2022-12-09T23:43:59.084Z,16.05
2022-12-09T23:46:29.127Z,16.27
2022-12-09T23:48:58.033Z,17.67
2022-12-09T23:51:28.170Z,18.40
2022-12-09T23:53:58.246Z,15.52
2022-12-09T23:56:29.439Z,16.35
2022-12-09T23:58:59.676Z,15.48
